sensor_id;sensor_type;location;lat;lon;timestamp;temperature;humidity
22633;DHT22;11483;55.828;37.488;2023-12-07T00:02:17;-6.80;99.90
22633;DHT22;11483;55.828;37.488;2023-12-07T00:04:43;-6.80;99.90
22633;DHT22;11483;55.828;37.488;2023-12-07T00:07:09;-6.70;99.90
22633;DHT22;11483;55.828;37.488;2023-12-07T00:09:35;-6.70;99.90
22633;DHT22;11483;55.828;37.488;2023-12-07T00:12:00;-6.70;99.90
22633;DHT22;11483;55.828;37.488;2023-12-07T00:14:26;-6.70;99.90
22633;DHT22;11483;55.828;37.488;2023-12-07T00:16:52;-6.60;99.90
22633;DHT22;11483;55.828;37.488;2023-12-07T00:19:18;-6.70;99.90
22633;DHT22;11483;55.828;37.488;2023-12-07T00:21:44;-6.70;99.90
22633;DHT22;11483;55.828;37.488;2023-12-07T00:24:10;-6.60;99.90
22633;DHT22;11483;55.828;37.488;2023-12-07T00:26:36;-6.70;99.90
22633;DHT22;11483;55.828;37.488;2023-12-07T00:29:02;-6.70;99.90
22633;DHT22;11483;55.828;37.488;2023-12-07T00:31:28;-6.70;99.90
22633;DHT22;11483;55.828;37.488;2023-12-07T00:33:53;-6.60;99.90
22633;DHT22;11483;55.828;37.488;2023-12-07T00:36:19;-6.70;99.90
22633;DHT22;11483;55.828;37.488;2023-12-07T00:38:45;-6.70;99.90
22633;DHT22;11483;55.828;37.488;2023-12-07T00:41:11;-6.70;99.90
22633;DHT22;11483;55.828;37.488;2023-12-07T00:43:37;-6.70;99.90
22633;DHT22;11483;55.828;37.488;2023-12-07T00:46:03;-6.80;99.90
22633;DHT22;11483;55.828;37.488;2023-12-07T00:48:30;-6.80;99.90
22633;DHT22;11483;55.828;37.488;2023-12-07T00:50:56;-6.70;99.90
22633;DHT22;11483;55.828;37.488;2023-12-07T00:53:22;-6.70;99.90
22633;DHT22;11483;55.828;37.488;2023-12-07T00:55:48;-6.80;99.90
22633;DHT22;11483;55.828;37.488;2023-12-07T00:58:15;-6.80;99.90
22633;DHT22;11483;55.828;37.488;2023-12-07T01:00:41;-6.90;99.90
22633;DHT22;11483;55.828;37.488;2023-12-07T01:03:07;-6.90;99.90
22633;DHT22;11483;55.828;37.488;2023-12-07T01:05:32;-6.90;99.90
22633;DHT22;11483;55.828;37.488;2023-12-07T01:07:58;-6.90;99.90
22633;DHT22;11483;55.828;37.488;2023-12-07T01:10:25;-6.90;99.90
22633;DHT22;11483;55.828;37.488;2023-12-07T01:12:51;-6.90;99.90
22633;DHT22;11483;55.828;37.488;2023-12-07T01:15:17;-7.00;99.90
22633;DHT22;11483;55.828;37.488;2023-12-07T01:17:42;-7.00;99.90
22633;DHT22;11483;55.828;37.488;2023-12-07T01:20:09;-7.10;99.90
22633;DHT22;11483;55.828;37.488;2023-12-07T01:22:39;-7.10;99.90
22633;DHT22;11483;55.828;37.488;2023-12-07T01:25:07;-7.10;99.90
22633;DHT22;11483;55.828;37.488;2023-12-07T01:27:33;-7.10;99.90
22633;DHT22;11483;55.828;37.488;2023-12-07T01:29:59;-7.10;99.90
22633;DHT22;11483;55.828;37.488;2023-12-07T01:32:25;-7.20;99.90
22633;DHT22;11483;55.828;37.488;2023-12-07T01:34:51;-7.30;99.90
22633;DHT22;11483;55.828;37.488;2023-12-07T01:37:17;-7.30;99.90
22633;DHT22;11483;55.828;37.488;2023-12-07T01:39:43;-7.30;99.90
22633;DHT22;11483;55.828;37.488;2023-12-07T01:42:10;-7.40;99.90
22633;DHT22;11483;55.828;37.488;2023-12-07T01:44:38;-7.30;99.90
22633;DHT22;11483;55.828;37.488;2023-12-07T01:47:04;-7.30;99.90
22633;DHT22;11483;55.828;37.488;2023-12-07T01:49:34;-7.30;99.90
22633;DHT22;11483;55.828;37.488;2023-12-07T01:52:01;-7.30;99.90
22633;DHT22;11483;55.828;37.488;2023-12-07T01:54:28;-7.40;99.90
22633;DHT22;11483;55.828;37.488;2023-12-07T01:56:54;-7.30;99.90
22633;DHT22;11483;55.828;37.488;2023-12-07T01:59:22;-7.30;99.90
22633;DHT22;11483;55.828;37.488;2023-12-07T02:01:48;-7.40;99.90
22633;DHT22;11483;55.828;37.488;2023-12-07T02:04:14;-7.40;99.90
22633;DHT22;11483;55.828;37.488;2023-12-07T02:06:40;-7.40;99.90
22633;DHT22;11483;55.828;37.488;2023-12-07T02:09:07;-7.40;99.90
22633;DHT22;11483;55.828;37.488;2023-12-07T02:11:34;-7.40;99.90
22633;DHT22;11483;55.828;37.488;2023-12-07T02:14:00;-7.40;99.90
22633;DHT22;11483;55.828;37.488;2023-12-07T02:16:47;-7.50;99.90
22633;DHT22;11483;55.828;37.488;2023-12-07T02:22:12;-7.50;99.90
22633;DHT22;11483;55.828;37.488;2023-12-07T02:24:48;-7.50;99.90
22633;DHT22;11483;55.828;37.488;2023-12-07T02:27:16;-7.50;99.90
22633;DHT22;11483;55.828;37.488;2023-12-07T02:29:42;-7.50;99.90
22633;DHT22;11483;55.828;37.488;2023-12-07T02:32:08;-7.60;99.90
22633;DHT22;11483;55.828;37.488;2023-12-07T02:34:34;-7.60;99.90
22633;DHT22;11483;55.828;37.488;2023-12-07T02:37:01;-7.60;99.90
22633;DHT22;11483;55.828;37.488;2023-12-07T02:39:28;-7.60;99.90
22633;DHT22;11483;55.828;37.488;2023-12-07T02:41:54;-7.70;99.90
22633;DHT22;11483;55.828;37.488;2023-12-07T02:44:21;-7.70;99.90
22633;DHT22;11483;55.828;37.488;2023-12-07T02:46:47;-7.70;99.90
22633;DHT22;11483;55.828;37.488;2023-12-07T02:49:14;-7.70;99.90
22633;DHT22;11483;55.828;37.488;2023-12-07T02:51:39;-7.70;99.90
22633;DHT22;11483;55.828;37.488;2023-12-07T02:54:05;-7.70;99.90
22633;DHT22;11483;55.828;37.488;2023-12-07T02:56:31;-7.70;99.90
22633;DHT22;11483;55.828;37.488;2023-12-07T02:58:57;-7.70;99.90
22633;DHT22;11483;55.828;37.488;2023-12-07T03:01:23;-7.70;99.90
22633;DHT22;11483;55.828;37.488;2023-12-07T03:03:49;-7.70;99.90
22633;DHT22;11483;55.828;37.488;2023-12-07T03:06:15;-7.60;99.90
22633;DHT22;11483;55.828;37.488;2023-12-07T03:08:42;-7.70;99.90
22633;DHT22;11483;55.828;37.488;2023-12-07T03:11:08;-7.70;99.90
22633;DHT22;11483;55.828;37.488;2023-12-07T03:13:34;-7.70;99.90
22633;DHT22;11483;55.828;37.488;2023-12-07T03:16:00;-7.70;99.90
22633;DHT22;11483;55.828;37.488;2023-12-07T03:18:26;-7.70;99.90
22633;DHT22;11483;55.828;37.488;2023-12-07T03:20:52;-7.70;99.90
22633;DHT22;11483;55.828;37.488;2023-12-07T03:23:17;-7.70;99.90
22633;DHT22;11483;55.828;37.488;2023-12-07T03:25:43;-7.70;99.90
22633;DHT22;11483;55.828;37.488;2023-12-07T03:28:09;-7.70;99.90
22633;DHT22;11483;55.828;37.488;2023-12-07T03:30:35;-7.70;99.90
22633;DHT22;11483;55.828;37.488;2023-12-07T03:33:01;-7.70;99.90
22633;DHT22;11483;55.828;37.488;2023-12-07T03:35:27;-7.70;99.90
22633;DHT22;11483;55.828;37.488;2023-12-07T03:37:53;-7.70;99.90
22633;DHT22;11483;55.828;37.488;2023-12-07T03:40:19;-7.70;99.90
22633;DHT22;11483;55.828;37.488;2023-12-07T03:42:45;-7.70;99.90
22633;DHT22;11483;55.828;37.488;2023-12-07T03:45:11;-7.70;99.90
22633;DHT22;11483;55.828;37.488;2023-12-07T03:47:37;-7.80;99.90
22633;DHT22;11483;55.828;37.488;2023-12-07T03:50:03;-7.80;99.90
22633;DHT22;11483;55.828;37.488;2023-12-07T03:52:28;-7.80;99.90
22633;DHT22;11483;55.828;37.488;2023-12-07T03:54:54;-7.80;99.90
22633;DHT22;11483;55.828;37.488;2023-12-07T03:57:20;-7.80;99.90
22633;DHT22;11483;55.828;37.488;2023-12-07T03:59:47;-7.90;99.90
22633;DHT22;11483;55.828;37.488;2023-12-07T04:02:13;-7.90;99.90
22633;DHT22;11483;55.828;37.488;2023-12-07T04:04:39;-7.80;99.90
22633;DHT22;11483;55.828;37.488;2023-12-07T04:07:05;-7.80;99.90
22633;DHT22;11483;55.828;37.488;2023-12-07T04:09:31;-7.90;99.90
22633;DHT22;11483;55.828;37.488;2023-12-07T04:11:56;-7.90;99.90
22633;DHT22;11483;55.828;37.488;2023-12-07T04:14:22;-7.90;99.90
22633;DHT22;11483;55.828;37.488;2023-12-07T04:16:48;-7.90;99.90
22633;DHT22;11483;55.828;37.488;2023-12-07T04:19:14;-7.90;99.90
22633;DHT22;11483;55.828;37.488;2023-12-07T04:21:40;-7.90;99.90
22633;DHT22;11483;55.828;37.488;2023-12-07T04:24:06;-7.80;99.90
22633;DHT22;11483;55.828;37.488;2023-12-07T04:26:32;-7.80;99.90
22633;DHT22;11483;55.828;37.488;2023-12-07T04:28:58;-7.80;99.90
22633;DHT22;11483;55.828;37.488;2023-12-07T04:31:23;-7.80;99.90
22633;DHT22;11483;55.828;37.488;2023-12-07T04:33:49;-7.80;99.90
22633;DHT22;11483;55.828;37.488;2023-12-07T04:36:15;-7.80;99.90
22633;DHT22;11483;55.828;37.488;2023-12-07T04:38:41;-7.80;99.90
22633;DHT22;11483;55.828;37.488;2023-12-07T04:41:07;-7.80;99.90
22633;DHT22;11483;55.828;37.488;2023-12-07T04:43:34;-7.80;99.90
22633;DHT22;11483;55.828;37.488;2023-12-07T04:46:00;-7.80;99.90
22633;DHT22;11483;55.828;37.488;2023-12-07T04:48:26;-7.80;99.90
22633;DHT22;11483;55.828;37.488;2023-12-07T04:50:52;-7.80;99.90
22633;DHT22;11483;55.828;37.488;2023-12-07T04:53:18;-7.90;99.90
22633;DHT22;11483;55.828;37.488;2023-12-07T04:55:44;-7.90;99.90
22633;DHT22;11483;55.828;37.488;2023-12-07T04:58:14;-7.90;99.90
22633;DHT22;11483;55.828;37.488;2023-12-07T05:00:41;-7.90;99.90
22633;DHT22;11483;55.828;37.488;2023-12-07T05:03:07;-8.00;99.90
22633;DHT22;11483;55.828;37.488;2023-12-07T05:05:33;-8.00;99.90
22633;DHT22;11483;55.828;37.488;2023-12-07T05:07:59;-8.00;99.90
22633;DHT22;11483;55.828;37.488;2023-12-07T05:10:24;-7.90;99.90
22633;DHT22;11483;55.828;37.488;2023-12-07T05:12:51;-7.90;99.90
22633;DHT22;11483;55.828;37.488;2023-12-07T05:15:16;-7.90;99.90
22633;DHT22;11483;55.828;37.488;2023-12-07T05:17:43;-8.00;99.90
22633;DHT22;11483;55.828;37.488;2023-12-07T05:20:09;-8.00;99.90
22633;DHT22;11483;55.828;37.488;2023-12-07T05:22:35;-8.10;99.90
22633;DHT22;11483;55.828;37.488;2023-12-07T05:25:01;-8.10;99.90
22633;DHT22;11483;55.828;37.488;2023-12-07T05:27:27;-8.00;99.90
22633;DHT22;11483;55.828;37.488;2023-12-07T05:29:53;-8.00;99.90
22633;DHT22;11483;55.828;37.488;2023-12-07T05:32:21;-8.00;99.90
22633;DHT22;11483;55.828;37.488;2023-12-07T05:34:47;-8.10;99.90
22633;DHT22;11483;55.828;37.488;2023-12-07T05:37:13;-8.00;99.90
22633;DHT22;11483;55.828;37.488;2023-12-07T05:39:39;-8.00;99.90
22633;DHT22;11483;55.828;37.488;2023-12-07T05:42:06;-8.00;99.90
22633;DHT22;11483;55.828;37.488;2023-12-07T05:44:32;-8.00;99.90
22633;DHT22;11483;55.828;37.488;2023-12-07T05:46:58;-8.00;99.90
22633;DHT22;11483;55.828;37.488;2023-12-07T05:49:24;-8.00;99.90
22633;DHT22;11483;55.828;37.488;2023-12-07T05:51:51;-8.00;99.90
22633;DHT22;11483;55.828;37.488;2023-12-07T05:54:18;-8.00;99.90
22633;DHT22;11483;55.828;37.488;2023-12-07T05:56:46;-8.00;99.90
22633;DHT22;11483;55.828;37.488;2023-12-07T05:59:12;-8.00;99.90
22633;DHT22;11483;55.828;37.488;2023-12-07T06:01:38;-8.00;99.90
22633;DHT22;11483;55.828;37.488;2023-12-07T06:04:05;-8.00;99.90
22633;DHT22;11483;55.828;37.488;2023-12-07T06:06:31;-7.90;99.90
22633;DHT22;11483;55.828;37.488;2023-12-07T06:08:57;-7.90;99.90
22633;DHT22;11483;55.828;37.488;2023-12-07T06:11:23;-7.90;99.90
22633;DHT22;11483;55.828;37.488;2023-12-07T06:13:49;-7.90;99.90
22633;DHT22;11483;55.828;37.488;2023-12-07T06:16:15;-7.80;99.90
22633;DHT22;11483;55.828;37.488;2023-12-07T06:18:43;-7.80;99.90
22633;DHT22;11483;55.828;37.488;2023-12-07T06:21:09;-7.70;99.90
22633;DHT22;11483;55.828;37.488;2023-12-07T06:23:35;-7.70;99.90
22633;DHT22;11483;55.828;37.488;2023-12-07T06:26:02;-7.70;99.90
22633;DHT22;11483;55.828;37.488;2023-12-07T06:28:30;-7.70;99.90
22633;DHT22;11483;55.828;37.488;2023-12-07T06:30:58;-7.70;99.90
22633;DHT22;11483;55.828;37.488;2023-12-07T06:33:24;-7.70;99.90
22633;DHT22;11483;55.828;37.488;2023-12-07T06:35:50;-7.60;99.90
22633;DHT22;11483;55.828;37.488;2023-12-07T06:38:16;-7.50;99.90
22633;DHT22;11483;55.828;37.488;2023-12-07T06:40:42;-7.50;99.90
22633;DHT22;11483;55.828;37.488;2023-12-07T06:43:09;-7.40;99.90
22633;DHT22;11483;55.828;37.488;2023-12-07T06:45:35;-7.40;99.90
22633;DHT22;11483;55.828;37.488;2023-12-07T06:48:01;-7.30;99.90
22633;DHT22;11483;55.828;37.488;2023-12-07T06:50:27;-7.20;99.90
22633;DHT22;11483;55.828;37.488;2023-12-07T06:52:53;-7.10;99.90
22633;DHT22;11483;55.828;37.488;2023-12-07T06:55:19;-7.00;99.90
22633;DHT22;11483;55.828;37.488;2023-12-07T06:57:45;-7.00;99.90
22633;DHT22;11483;55.828;37.488;2023-12-07T07:00:11;-7.00;99.90
22633;DHT22;11483;55.828;37.488;2023-12-07T07:02:40;-7.00;99.90
22633;DHT22;11483;55.828;37.488;2023-12-07T07:05:06;-7.00;99.90
22633;DHT22;11483;55.828;37.488;2023-12-07T07:07:33;-7.00;99.90
22633;DHT22;11483;55.828;37.488;2023-12-07T07:09:58;-7.10;99.90
22633;DHT22;11483;55.828;37.488;2023-12-07T07:12:25;-7.10;99.90
22633;DHT22;11483;55.828;37.488;2023-12-07T07:14:50;-7.00;99.90
22633;DHT22;11483;55.828;37.488;2023-12-07T07:17:16;-6.90;99.90
22633;DHT22;11483;55.828;37.488;2023-12-07T07:19:43;-6.90;99.90
22633;DHT22;11483;55.828;37.488;2023-12-07T07:22:09;-7.00;99.90
22633;DHT22;11483;55.828;37.488;2023-12-07T07:24:35;-7.00;99.90
22633;DHT22;11483;55.828;37.488;2023-12-07T07:27:01;-7.00;99.90
22633;DHT22;11483;55.828;37.488;2023-12-07T07:29:27;-7.00;99.90
22633;DHT22;11483;55.828;37.488;2023-12-07T07:31:53;-7.00;99.90
22633;DHT22;11483;55.828;37.488;2023-12-07T07:34:19;-6.90;99.90
22633;DHT22;11483;55.828;37.488;2023-12-07T07:36:45;-6.90;99.90
22633;DHT22;11483;55.828;37.488;2023-12-07T07:39:14;-6.90;99.90
22633;DHT22;11483;55.828;37.488;2023-12-07T07:41:40;-7.00;99.90
22633;DHT22;11483;55.828;37.488;2023-12-07T07:44:06;-6.90;99.90
22633;DHT22;11483;55.828;37.488;2023-12-07T07:46:32;-7.10;99.90
22633;DHT22;11483;55.828;37.488;2023-12-07T07:48:58;-7.10;99.90
22633;DHT22;11483;55.828;37.488;2023-12-07T07:51:23;-6.90;99.90
22633;DHT22;11483;55.828;37.488;2023-12-07T07:53:49;-6.70;99.90
22633;DHT22;11483;55.828;37.488;2023-12-07T07:56:15;-6.60;99.90
22633;DHT22;11483;55.828;37.488;2023-12-07T07:58:41;-6.60;99.90
22633;DHT22;11483;55.828;37.488;2023-12-07T08:01:07;-6.60;99.90
22633;DHT22;11483;55.828;37.488;2023-12-07T08:03:33;-6.70;99.90
22633;DHT22;11483;55.828;37.488;2023-12-07T08:05:59;-6.70;99.90
22633;DHT22;11483;55.828;37.488;2023-12-07T08:08:25;-6.70;99.90
22633;DHT22;11483;55.828;37.488;2023-12-07T08:10:52;-6.70;99.90
22633;DHT22;11483;55.828;37.488;2023-12-07T08:13:18;-6.70;99.90
22633;DHT22;11483;55.828;37.488;2023-12-07T08:15:44;-6.80;99.90
22633;DHT22;11483;55.828;37.488;2023-12-07T08:18:10;-6.80;99.90
22633;DHT22;11483;55.828;37.488;2023-12-07T08:20:36;-6.60;99.90
22633;DHT22;11483;55.828;37.488;2023-12-07T08:23:03;-6.60;99.90
22633;DHT22;11483;55.828;37.488;2023-12-07T08:25:29;-6.60;99.90
22633;DHT22;11483;55.828;37.488;2023-12-07T08:27:55;-6.60;99.90
22633;DHT22;11483;55.828;37.488;2023-12-07T08:30:21;-6.70;99.90
22633;DHT22;11483;55.828;37.488;2023-12-07T08:32:47;-6.70;99.90
22633;DHT22;11483;55.828;37.488;2023-12-07T08:35:13;-6.80;99.90
22633;DHT22;11483;55.828;37.488;2023-12-07T08:37:39;-6.80;99.90
22633;DHT22;11483;55.828;37.488;2023-12-07T08:40:06;-6.90;99.90
22633;DHT22;11483;55.828;37.488;2023-12-07T08:42:32;-6.90;99.90
22633;DHT22;11483;55.828;37.488;2023-12-07T08:44:58;-6.70;99.90
22633;DHT22;11483;55.828;37.488;2023-12-07T08:47:24;-6.50;99.90
22633;DHT22;11483;55.828;37.488;2023-12-07T08:49:53;-6.40;99.90
22633;DHT22;11483;55.828;37.488;2023-12-07T08:52:19;-6.40;99.90
22633;DHT22;11483;55.828;37.488;2023-12-07T08:54:45;-6.30;99.90
22633;DHT22;11483;55.828;37.488;2023-12-07T08:57:11;-6.20;99.90
22633;DHT22;11483;55.828;37.488;2023-12-07T08:59:37;-6.20;99.90
22633;DHT22;11483;55.828;37.488;2023-12-07T09:02:03;-6.20;99.90
22633;DHT22;11483;55.828;37.488;2023-12-07T09:04:29;-6.20;99.90
22633;DHT22;11483;55.828;37.488;2023-12-07T09:06:55;-6.10;99.90
22633;DHT22;11483;55.828;37.488;2023-12-07T09:09:22;-6.00;99.90
22633;DHT22;11483;55.828;37.488;2023-12-07T09:11:49;-6.00;99.90
22633;DHT22;11483;55.828;37.488;2023-12-07T09:14:15;-6.20;99.90
22633;DHT22;11483;55.828;37.488;2023-12-07T09:16:44;-6.10;99.90
22633;DHT22;11483;55.828;37.488;2023-12-07T09:19:14;-6.00;99.90
22633;DHT22;11483;55.828;37.488;2023-12-07T09:21:43;-6.00;99.90
22633;DHT22;11483;55.828;37.488;2023-12-07T09:24:09;-6.00;99.90
22633;DHT22;11483;55.828;37.488;2023-12-07T09:26:35;-6.00;99.90
22633;DHT22;11483;55.828;37.488;2023-12-07T09:29:02;-5.90;99.90
22633;DHT22;11483;55.828;37.488;2023-12-07T09:31:28;-6.10;99.90
22633;DHT22;11483;55.828;37.488;2023-12-07T09:33:54;-6.10;99.90
22633;DHT22;11483;55.828;37.488;2023-12-07T09:36:21;-6.00;99.90
22633;DHT22;11483;55.828;37.488;2023-12-07T09:38:47;-5.90;99.90
22633;DHT22;11483;55.828;37.488;2023-12-07T09:41:13;-5.80;99.90
22633;DHT22;11483;55.828;37.488;2023-12-07T09:43:39;-5.80;99.90
22633;DHT22;11483;55.828;37.488;2023-12-07T09:46:05;-5.80;99.90
22633;DHT22;11483;55.828;37.488;2023-12-07T09:48:32;-5.80;99.90
22633;DHT22;11483;55.828;37.488;2023-12-07T09:50:59;-5.90;99.90
22633;DHT22;11483;55.828;37.488;2023-12-07T09:53:28;-5.80;99.90
22633;DHT22;11483;55.828;37.488;2023-12-07T09:55:55;-5.80;99.90
22633;DHT22;11483;55.828;37.488;2023-12-07T09:58:21;-5.80;99.90
22633;DHT22;11483;55.828;37.488;2023-12-07T10:00:47;-5.70;99.90
22633;DHT22;11483;55.828;37.488;2023-12-07T10:03:21;-5.80;99.90
22633;DHT22;11483;55.828;37.488;2023-12-07T10:05:55;-6.10;99.90
22633;DHT22;11483;55.828;37.488;2023-12-07T10:08:34;-6.20;99.90
22633;DHT22;11483;55.828;37.488;2023-12-07T10:11:08;-6.30;99.90
22633;DHT22;11483;55.828;37.488;2023-12-07T10:13:35;-6.50;99.90
22633;DHT22;11483;55.828;37.488;2023-12-07T10:16:13;-6.50;99.90
22633;DHT22;11483;55.828;37.488;2023-12-07T10:18:40;-6.50;99.90
22633;DHT22;11483;55.828;37.488;2023-12-07T10:21:09;-6.50;99.90
22633;DHT22;11483;55.828;37.488;2023-12-07T10:23:40;-6.40;99.90
22633;DHT22;11483;55.828;37.488;2023-12-07T10:26:06;-6.30;99.90
22633;DHT22;11483;55.828;37.488;2023-12-07T10:28:36;-6.30;99.90
22633;DHT22;11483;55.828;37.488;2023-12-07T10:31:08;-6.10;99.90
22633;DHT22;11483;55.828;37.488;2023-12-07T10:33:35;-6.00;99.90
22633;DHT22;11483;55.828;37.488;2023-12-07T10:36:03;-5.90;99.90
22633;DHT22;11483;55.828;37.488;2023-12-07T10:38:30;-5.90;99.90
22633;DHT22;11483;55.828;37.488;2023-12-07T10:41:05;-6.40;99.90
22633;DHT22;11483;55.828;37.488;2023-12-07T10:43:37;-6.10;99.90
22633;DHT22;11483;55.828;37.488;2023-12-07T10:46:07;-6.20;99.90
22633;DHT22;11483;55.828;37.488;2023-12-07T10:48:35;-6.20;99.90
22633;DHT22;11483;55.828;37.488;2023-12-07T10:51:06;-6.20;99.90
22633;DHT22;11483;55.828;37.488;2023-12-07T10:53:40;-6.30;99.90
22633;DHT22;11483;55.828;37.488;2023-12-07T10:56:16;-6.30;99.90
22633;DHT22;11483;55.828;37.488;2023-12-07T10:58:45;-6.30;99.90
22633;DHT22;11483;55.828;37.488;2023-12-07T11:01:13;-6.30;99.90
22633;DHT22;11483;55.828;37.488;2023-12-07T11:03:43;-6.40;99.90
22633;DHT22;11483;55.828;37.488;2023-12-07T11:06:10;-6.30;99.90
22633;DHT22;11483;55.828;37.488;2023-12-07T11:08:50;-6.40;99.90
22633;DHT22;11483;55.828;37.488;2023-12-07T11:11:43;-6.50;99.90
22633;DHT22;11483;55.828;37.488;2023-12-07T11:14:13;-6.60;99.90
22633;DHT22;11483;55.828;37.488;2023-12-07T11:16:45;-6.70;99.90
22633;DHT22;11483;55.828;37.488;2023-12-07T11:22:03;-6.80;99.90
22633;DHT22;11483;55.828;37.488;2023-12-07T11:24:30;-6.90;99.90
22633;DHT22;11483;55.828;37.488;2023-12-07T11:26:56;-7.00;99.90
22633;DHT22;11483;55.828;37.488;2023-12-07T11:29:28;-7.00;99.90
22633;DHT22;11483;55.828;37.488;2023-12-07T11:32:12;-7.00;99.90
22633;DHT22;11483;55.828;37.488;2023-12-07T11:34:40;-7.00;99.90
22633;DHT22;11483;55.828;37.488;2023-12-07T11:37:09;-7.10;99.90
22633;DHT22;11483;55.828;37.488;2023-12-07T11:39:42;-7.00;99.90
22633;DHT22;11483;55.828;37.488;2023-12-07T11:44:39;-6.90;99.90
22633;DHT22;11483;55.828;37.488;2023-12-07T11:47:06;-7.00;99.90
22633;DHT22;11483;55.828;37.488;2023-12-07T11:49:33;-7.10;99.90
22633;DHT22;11483;55.828;37.488;2023-12-07T11:51:59;-7.20;99.90
22633;DHT22;11483;55.828;37.488;2023-12-07T11:54:26;-7.30;99.90
22633;DHT22;11483;55.828;37.488;2023-12-07T11:56:57;-7.30;99.90
22633;DHT22;11483;55.828;37.488;2023-12-07T11:59:23;-7.40;99.90
22633;DHT22;11483;55.828;37.488;2023-12-07T12:01:52;-7.40;99.90
22633;DHT22;11483;55.828;37.488;2023-12-07T12:04:18;-7.50;99.90
22633;DHT22;11483;55.828;37.488;2023-12-07T12:06:47;-7.50;99.90
22633;DHT22;11483;55.828;37.488;2023-12-07T12:09:16;-7.60;99.90
22633;DHT22;11483;55.828;37.488;2023-12-07T12:11:47;-7.60;99.90
22633;DHT22;11483;55.828;37.488;2023-12-07T12:14:17;-7.60;99.90
22633;DHT22;11483;55.828;37.488;2023-12-07T12:16:46;-7.70;99.90
22633;DHT22;11483;55.828;37.488;2023-12-07T12:19:13;-7.80;99.90
22633;DHT22;11483;55.828;37.488;2023-12-07T12:21:42;-7.80;99.90
22633;DHT22;11483;55.828;37.488;2023-12-07T12:24:10;-7.80;99.90
22633;DHT22;11483;55.828;37.488;2023-12-07T12:26:41;-7.80;99.90
22633;DHT22;11483;55.828;37.488;2023-12-07T12:29:07;-7.90;99.90
22633;DHT22;11483;55.828;37.488;2023-12-07T12:31:34;-8.00;99.90
22633;DHT22;11483;55.828;37.488;2023-12-07T12:34:01;-8.00;99.90
22633;DHT22;11483;55.828;37.488;2023-12-07T12:36:27;-8.00;99.90
22633;DHT22;11483;55.828;37.488;2023-12-07T12:38:55;-8.00;99.90
22633;DHT22;11483;55.828;37.488;2023-12-07T12:41:22;-8.00;99.90
22633;DHT22;11483;55.828;37.488;2023-12-07T12:43:49;-8.10;99.90
22633;DHT22;11483;55.828;37.488;2023-12-07T12:46:16;-8.10;99.90
22633;DHT22;11483;55.828;37.488;2023-12-07T12:51:25;-8.10;99.90
22633;DHT22;11483;55.828;37.488;2023-12-07T12:53:53;-8.20;99.90
22633;DHT22;11483;55.828;37.488;2023-12-07T12:56:20;-8.30;99.90
22633;DHT22;11483;55.828;37.488;2023-12-07T12:58:51;-8.30;99.90
22633;DHT22;11483;55.828;37.488;2023-12-07T13:01:18;-8.30;99.90
22633;DHT22;11483;55.828;37.488;2023-12-07T13:03:46;-8.30;99.90
22633;DHT22;11483;55.828;37.488;2023-12-07T13:06:17;-8.30;99.90
22633;DHT22;11483;55.828;37.488;2023-12-07T13:08:47;-8.30;99.90
22633;DHT22;11483;55.828;37.488;2023-12-07T13:11:17;-8.40;99.90
22633;DHT22;11483;55.828;37.488;2023-12-07T13:13:45;-8.50;99.90
22633;DHT22;11483;55.828;37.488;2023-12-07T13:16:13;-8.50;99.90
22633;DHT22;11483;55.828;37.488;2023-12-07T13:18:40;-8.50;99.90
22633;DHT22;11483;55.828;37.488;2023-12-07T13:21:06;-8.50;99.90
22633;DHT22;11483;55.828;37.488;2023-12-07T13:23:32;-8.50;99.90
22633;DHT22;11483;55.828;37.488;2023-12-07T13:25:58;-8.50;99.90
22633;DHT22;11483;55.828;37.488;2023-12-07T13:28:24;-8.50;99.90
22633;DHT22;11483;55.828;37.488;2023-12-07T13:30:51;-8.50;99.90
22633;DHT22;11483;55.828;37.488;2023-12-07T13:33:17;-8.50;99.90
22633;DHT22;11483;55.828;37.488;2023-12-07T13:35:43;-8.60;99.90
22633;DHT22;11483;55.828;37.488;2023-12-07T13:38:08;-8.60;99.90
22633;DHT22;11483;55.828;37.488;2023-12-07T13:40:34;-8.70;99.90
22633;DHT22;11483;55.828;37.488;2023-12-07T13:43:03;-8.70;99.90
22633;DHT22;11483;55.828;37.488;2023-12-07T13:45:29;-8.60;99.90
22633;DHT22;11483;55.828;37.488;2023-12-07T13:47:55;-8.60;99.90
22633;DHT22;11483;55.828;37.488;2023-12-07T13:50:21;-8.60;99.90
22633;DHT22;11483;55.828;37.488;2023-12-07T13:52:48;-8.60;99.90
22633;DHT22;11483;55.828;37.488;2023-12-07T13:55:14;-8.50;99.90
22633;DHT22;11483;55.828;37.488;2023-12-07T13:57:40;-8.50;99.90
22633;DHT22;11483;55.828;37.488;2023-12-07T14:00:06;-9.20;99.90
22633;DHT22;11483;55.828;37.488;2023-12-07T14:02:32;-8.50;99.90
22633;DHT22;11483;55.828;37.488;2023-12-07T14:04:58;-8.50;99.90
22633;DHT22;11483;55.828;37.488;2023-12-07T14:07:24;-8.50;99.90
22633;DHT22;11483;55.828;37.488;2023-12-07T14:09:52;-8.50;99.90
22633;DHT22;11483;55.828;37.488;2023-12-07T14:12:18;-8.50;99.90
22633;DHT22;11483;55.828;37.488;2023-12-07T14:14:46;-8.50;99.90
22633;DHT22;11483;55.828;37.488;2023-12-07T14:17:13;-9.10;99.90
22633;DHT22;11483;55.828;37.488;2023-12-07T14:19:39;-8.50;99.90
22633;DHT22;11483;55.828;37.488;2023-12-07T14:22:06;-8.50;99.90
22633;DHT22;11483;55.828;37.488;2023-12-07T14:24:35;-8.50;99.90
22633;DHT22;11483;55.828;37.488;2023-12-07T14:27:02;-8.50;99.90
22633;DHT22;11483;55.828;37.488;2023-12-07T14:29:29;-8.50;99.90
22633;DHT22;11483;55.828;37.488;2023-12-07T14:31:55;-8.50;99.90
22633;DHT22;11483;55.828;37.488;2023-12-07T14:34:22;-8.60;99.90
22633;DHT22;11483;55.828;37.488;2023-12-07T14:36:48;-8.50;99.90
22633;DHT22;11483;55.828;37.488;2023-12-07T14:39:14;-8.60;99.90
22633;DHT22;11483;55.828;37.488;2023-12-07T14:41:44;-8.60;99.90
22633;DHT22;11483;55.828;37.488;2023-12-07T14:44:13;-8.50;99.90
22633;DHT22;11483;55.828;37.488;2023-12-07T14:46:47;-8.50;99.90
22633;DHT22;11483;55.828;37.488;2023-12-07T14:49:14;-8.50;99.90
22633;DHT22;11483;55.828;37.488;2023-12-07T14:51:40;-8.50;99.90
22633;DHT22;11483;55.828;37.488;2023-12-07T14:54:07;-8.50;99.90
22633;DHT22;11483;55.828;37.488;2023-12-07T14:56:35;-8.90;99.90
22633;DHT22;11483;55.828;37.488;2023-12-07T14:59:01;-8.50;99.90
22633;DHT22;11483;55.828;37.488;2023-12-07T15:01:28;-8.50;99.90
22633;DHT22;11483;55.828;37.488;2023-12-07T15:03:54;-8.40;99.90
22633;DHT22;11483;55.828;37.488;2023-12-07T15:06:20;-8.50;99.90
22633;DHT22;11483;55.828;37.488;2023-12-07T15:08:46;-8.50;99.90
22633;DHT22;11483;55.828;37.488;2023-12-07T15:11:13;-8.50;99.90
22633;DHT22;11483;55.828;37.488;2023-12-07T15:13:39;-8.50;99.90
22633;DHT22;11483;55.828;37.488;2023-12-07T15:16:06;-8.50;99.90
22633;DHT22;11483;55.828;37.488;2023-12-07T15:18:32;-8.50;99.90
22633;DHT22;11483;55.828;37.488;2023-12-07T15:21:04;-8.50;99.90
22633;DHT22;11483;55.828;37.488;2023-12-07T15:23:30;-8.50;99.90
22633;DHT22;11483;55.828;37.488;2023-12-07T15:26:00;-8.50;99.90